Marigola — IBEL — position and weather

sailwx.info

Track history (hours):
 
Tides and Currents Weather Stations Pressure Air Temp Water Temp Dewpoint Dewpoint Depression Visibility Wind Speed Wind Dir Waves Ship Positions

Marigola

Last reported at 2015-May-26 21:07 UTC. Time now 2015-May-28 20:12 UTC.
Position S 23°51' W 039°59'.

Length 145 m; draft 6.4 m.

Type: Ship (hazmat cat A). MMSI: 247567000.

Date/timePositionNaut miles runAvg speedWind from/ knotsBaromVisibWave heightAir tempDewpointWater temp
2015-May-26 21:07S 23°51' W 039°59'813.6
2015-May-26 20:34S 23°54' W 040°07'34412.7
2015-May-25 17:33S 23°54' W 046°23'2 1.4
2015-May-25 16:26S 23°52' W 046°22'0 0.0
2015-May-25 15:23S 23°52' W 046°22'0 0.0
2015-May-25 14:32S 23°52' W 046°22'0 0.0
2015-May-25 13:29S 23°52' W 046°22'0 0.0
2015-May-25 12:17S 23°52' W 046°22'0 0.0
2015-May-25 11:26S 23°52' W 046°22'0 0.0
2015-May-25 10:32S 23°52' W 046°22'0 0.0
2015-May-25 09:32S 23°52' W 046°22'0 0.0
2015-May-25 08:26S 23°52' W 046°22'0 0.0
2015-May-25 07:32S 23°52' W 046°22'0 0.0
2015-May-25 06:32S 23°52' W 046°22'0 0.0
2015-May-25 05:26S 23°52' W 046°22'0 0.0
2015-May-25 04:11S 23°52' W 046°22'0 0.0
2015-May-25 03:26S 23°52' W 046°22'0 0.0
2015-May-25 02:32S 23°52' W 046°22'0 0.0
2015-May-25 01:26S 23°52' W 046°22'0 0.0
2015-May-25 00:32S 23°52' W 046°22'0 0.0
2015-May-24 23:29S 23°52' W 046°22'0 0.0
2015-May-24 22:17S 23°52' W 046°22'0 0.0
2015-May-24 21:14S 23°52' W 046°22'0 0.0
2015-May-24 20:05S 23°52' W 046°22'0 0.0
2015-May-24 19:32S 23°52' W 046°22'0 0.2
2015-May-24 18:33S 23°52' W 046°22'5 4.5
2015-May-24 17:33S 23°56' W 046°19'6 6.0
2015-May-24 16:33S 24°02' W 046°21'5 5.2
2015-May-24 15:34S 24°07' W 046°21'0 0.1
2015-May-24 14:34S 24°07' W 046°21'0 0.0
2015-May-24 13:33S 24°07' W 046°21'0 0.5
2015-May-24 12:33S 24°07' W 046°22'1212.0
2015-May-24 11:33S 24°19' W 046°18'1813.7
2015-May-24 10:15S 24°33' W 046°06'2313.2
2015-May-24 08:31S 24°36' W 045°41'1313.7
2015-May-24 07:33S 24°36' W 045°27'  
Track history (hours):
 
Tides and Currents Weather Stations Pressure Air Temp Water Temp Dewpoint Dewpoint Depression Visibility Wind Speed Wind Dir Waves Ship Positions

Marigola

Last reported at 2015-May-26 21:07 UTC. Time now 2015-May-28 20:12 UTC.
Position S 23°51' W 039°59'.

Length 145 m; draft 6.4 m.

Type: Ship (hazmat cat A). MMSI: 247567000.

Date/timePositionNaut miles runAvg speedWind from/ knotsBaromVisibWave heightAir tempDewpointWater temp
2015-May-26 21:07S 23°51' W 039°59'813.6
2015-May-26 20:34S 23°54' W 040°07'34412.7
2015-May-25 17:33S 23°54' W 046°23'2 1.4
2015-May-25 16:26S 23°52' W 046°22'0 0.0
2015-May-25 15:23S 23°52' W 046°22'0 0.0
2015-May-25 14:32S 23°52' W 046°22'0 0.0
2015-May-25 13:29S 23°52' W 046°22'0 0.0
2015-May-25 12:17S 23°52' W 046°22'0 0.0
2015-May-25 11:26S 23°52' W 046°22'0 0.0
2015-May-25 10:32S 23°52' W 046°22'0 0.0
2015-May-25 09:32S 23°52' W 046°22'0 0.0
2015-May-25 08:26S 23°52' W 046°22'0 0.0
2015-May-25 07:32S 23°52' W 046°22'0 0.0
2015-May-25 06:32S 23°52' W 046°22'0 0.0
2015-May-25 05:26S 23°52' W 046°22'0 0.0
2015-May-25 04:11S 23°52' W 046°22'0 0.0
2015-May-25 03:26S 23°52' W 046°22'0 0.0
2015-May-25 02:32S 23°52' W 046°22'0 0.0
2015-May-25 01:26S 23°52' W 046°22'0 0.0
2015-May-25 00:32S 23°52' W 046°22'0 0.0
2015-May-24 23:29S 23°52' W 046°22'0 0.0
2015-May-24 22:17S 23°52' W 046°22'0 0.0
2015-May-24 21:14S 23°52' W 046°22'0 0.0
2015-May-24 20:05S 23°52' W 046°22'0 0.0
2015-May-24 19:32S 23°52' W 046°22'0 0.2
2015-May-24 18:33S 23°52' W 046°22'5 4.5
2015-May-24 17:33S 23°56' W 046°19'6 6.0
2015-May-24 16:33S 24°02' W 046°21'5 5.2
2015-May-24 15:34S 24°07' W 046°21'0 0.1
2015-May-24 14:34S 24°07' W 046°21'0 0.0
2015-May-24 13:33S 24°07' W 046°21'0 0.5
2015-May-24 12:33S 24°07' W 046°22'1212.0
2015-May-24 11:33S 24°19' W 046°18'1813.7
2015-May-24 10:15S 24°33' W 046°06'2313.2
2015-May-24 08:31S 24°36' W 045°41'1313.7
2015-May-24 07:33S 24°36' W 045°27'  

Dump ship's entire track history